Time;durP1;ratioP1;P1;durP2;ratioP2;P2;SDS_P1;SDS_P2;PMS_P1;PMS_P2;Temp;Humidity;BMP_temperature;BMP_pressure;BME280_temperature;BME280_humidity;BME280_pressure;Samples;Min_cycle;Max_cycle;Signal;HPM_P1;HPM_P2
2022/02/23 00:01:04;;;;;;;6.60;1.40;;;8.50;72.10;;;;;;4965231;28;20039;-68
2022/02/23 00:03:29;;;;;;;9.75;1.92;;;8.50;72.10;;;;;;4964438;28;20035;-68
2022/02/23 00:05:55;;;;;;;8.98;1.77;;;8.60;72.30;;;;;;4961199;28;20031;-67
2022/02/23 00:08:20;;;;;;;9.07;1.80;;;8.50;72.30;;;;;;4963641;28;20425;-68
2022/02/23 00:10:46;;;;;;;7.25;1.73;;;8.60;72.30;;;;;;4959196;28;20477;-68
2022/02/23 00:13:12;;;;;;;9.73;1.92;;;8.60;72.40;;;;;;4960931;28;20042;-67
2022/02/23 00:15:37;;;;;;;6.80;1.52;;;8.50;72.50;;;;;;4965026;28;20072;-67
2022/02/23 00:18:03;;;;;;;4.28;1.35;;;8.60;72.50;;;;;;4961454;28;20039;-67
2022/02/23 00:20:29;;;;;;;9.68;1.83;;;8.60;72.60;;;;;;4964026;28;20118;-68
2022/02/23 00:22:54;;;;;;;6.65;1.70;;;8.60;72.60;;;;;;4962026;28;20050;-68
2022/02/23 00:25:21;;;;;;;6.65;1.80;;;8.60;72.50;;;;;;4962887;28;20054;-68
2022/02/23 00:27:46;;;;;;;7.07;1.60;;;8.50;72.50;;;;;;4961015;28;20117;-68
2022/02/23 00:30:12;;;;;;;11.00;2.10;;;8.60;72.60;;;;;;4963833;28;20549;-68
2022/02/23 00:32:38;;;;;;;6.15;1.50;;;8.50;72.60;;;;;;4961662;28;20461;-67
2022/02/23 00:35:05;;;;;;;6.35;1.73;;;8.50;72.50;;;;;;4963075;28;20121;-67
2022/02/23 00:37:31;;;;;;;8.23;1.90;;;8.60;72.50;;;;;;4961934;28;20046;-67
2022/02/23 00:39:56;;;;;;;9.40;2.00;;;8.50;72.50;;;;;;4960198;28;20035;-68
2022/02/23 00:42:22;;;;;;;8.43;2.42;;;8.50;72.50;;;;;;4962909;28;20033;-68
2022/02/23 00:44:47;;;;;;;8.93;1.58;;;8.50;72.60;;;;;;4957621;28;20121;-67
2022/02/23 00:47:13;;;;;;;9.52;2.00;;;8.50;72.70;;;;;;4964435;28;20548;-68
2022/02/23 00:49:39;;;;;;;4.72;1.75;;;8.60;72.90;;;;;;4962735;28;20031;-68
2022/02/23 00:52:06;;;;;;;7.13;1.73;;;8.50;72.80;;;;;;4963447;28;20031;-68
2022/02/23 00:54:34;;;;;;;7.15;1.92;;;8.50;73.00;;;;;;4959862;28;20510;-67
2022/02/23 00:57:01;;;;;;;6.47;1.58;;;8.40;73.20;;;;;;4961948;28;20107;-68
2022/02/23 00:59:27;;;;;;;5.95;1.48;;;8.50;73.10;;;;;;4961973;28;20391;-68
2022/02/23 01:01:53;;;;;;;7.95;1.60;;;8.50;73.30;;;;;;4963242;28;20037;-68
2022/02/23 01:04:18;;;;;;;6.38;1.63;;;8.50;73.20;;;;;;4962944;28;20046;-68
2022/02/23 01:06:44;;;;;;;7.07;1.80;;;8.50;73.50;;;;;;4965654;28;20038;-69
2022/02/23 01:09:10;;;;;;;12.02;1.75;;;8.60;73.50;;;;;;4966540;28;20787;-68
2022/02/23 01:11:37;;;;;;;6.53;1.63;;;8.50;73.30;;;;;;4965027;28;20118;-67
2022/02/23 01:14:03;;;;;;;4.53;1.50;;;8.50;73.50;;;;;;4967087;28;20514;-67
2022/02/23 01:16:28;;;;;;;5.75;1.63;;;8.50;73.50;;;;;;4964229;28;20039;-67
2022/02/23 01:18:54;;;;;;;5.57;1.67;;;8.50;73.70;;;;;;4967028;28;20393;-68
2022/02/23 01:21:20;;;;;;;7.13;1.30;;;8.50;73.70;;;;;;4965240;28;20109;-68
2022/02/23 01:23:46;;;;;;;5.25;1.50;;;8.60;73.90;;;;;;4966709;28;20141;-68
2022/02/23 01:26:11;;;;;;;6.32;1.23;;;8.60;73.70;;;;;;4965955;28;20043;-68
2022/02/23 01:28:37;;;;;;;5.32;1.58;;;8.60;73.80;;;;;;4965527;28;20410;-67
2022/02/23 01:31:03;;;;;;;5.05;1.40;;;8.60;73.80;;;;;;4966891;28;20077;-68
2022/02/23 01:33:29;;;;;;;5.05;1.90;;;8.60;73.70;;;;;;4967031;28;20481;-69
2022/02/23 01:35:55;;;;;;;6.55;1.55;;;8.60;73.80;;;;;;4966480;28;20038;-67
2022/02/23 01:38:20;;;;;;;6.88;1.75;;;8.60;73.70;;;;;;4966723;28;20481;-68
2022/02/23 01:40:46;;;;;;;6.85;1.52;;;8.60;73.70;;;;;;4966196;28;20129;-67
2022/02/23 01:43:12;;;;;;;6.18;1.73;;;8.60;73.90;;;;;;4966346;28;20031;-68
2022/02/23 01:45:38;;;;;;;5.45;1.65;;;8.60;73.80;;;;;;4965388;28;20514;-66
2022/02/23 01:48:04;;;;;;;6.28;1.70;;;8.60;73.80;;;;;;4966180;28;20510;-68
2022/02/23 01:50:30;;;;;;;5.05;1.50;;;8.60;73.90;;;;;;4967008;28;20050;-68
2022/02/23 01:52:55;;;;;;;6.38;1.52;;;8.60;73.80;;;;;;4964448;28;20050;-67
2022/02/23 01:55:21;;;;;;;8.38;1.60;;;8.70;74.00;;;;;;4966025;28;20059;-67
2022/02/23 01:57:47;;;;;;;6.65;1.60;;;8.60;74.00;;;;;;4963625;28;20118;-68
2022/02/23 02:00:15;;;;;;;6.20;1.48;;;8.60;74.00;;;;;;4966301;28;20445;-68
2022/02/23 02:02:42;;;;;;;4.63;1.60;;;8.60;74.00;;;;;;4964543;28;20035;-67
2022/02/23 02:05:08;;;;;;;4.63;1.30;;;8.70;74.00;;;;;;4963639;28;20042;-67
2022/02/23 02:07:34;;;;;;;6.30;1.13;;;8.60;73.90;;;;;;4957168;28;20039;-67
2022/02/23 02:10:01;;;;;;;5.40;1.55;;;8.60;74.00;;;;;;4960015;28;20042;-68
2022/02/23 02:12:26;;;;;;;4.90;1.10;;;8.60;74.40;;;;;;4956684;28;20081;-67
2022/02/23 02:14:52;;;;;;;3.78;1.15;;;8.60;74.50;;;;;;4959184;28;20430;-67
2022/02/23 02:17:18;;;;;;;5.22;1.15;;;8.60;74.70;;;;;;4958192;28;20043;-67
2022/02/23 02:19:44;;;;;;;3.40;1.00;;;8.60;74.90;;;;;;4960825;28;20247;-67
2022/02/23 02:22:10;;;;;;;4.53;1.10;;;8.60;74.80;;;;;;4955824;28;20113;-67
2022/02/23 02:24:39;;;;;;;5.55;1.27;;;8.60;75.00;;;;;;4959891;28;20031;-67
2022/02/23 02:27:10;;;;;;;4.95;1.20;;;8.60;75.20;;;;;;4958886;28;20421;-67
2022/02/23 02:29:36;;;;;;;3.03;1.00;;;8.70;75.20;;;;;;4958838;28;20035;-67
2022/02/23 02:32:03;;;;;;;4.53;1.23;;;8.70;75.10;;;;;;4959412;28;20089;-67
2022/02/23 02:34:29;;;;;;;3.78;1.00;;;8.70;75.20;;;;;;4960690;28;20066;-67
2022/02/23 02:36:55;;;;;;;3.95;1.20;;;8.70;75.30;;;;;;4957211;28;20149;-67
2022/02/23 02:39:22;;;;;;;3.47;1.35;;;8.70;75.40;;;;;;4959800;28;20227;-67
2022/02/23 02:41:48;;;;;;;3.63;1.05;;;8.60;75.40;;;;;;4960116;28;20457;-67
2022/02/23 02:44:14;;;;;;;6.00;1.00;;;8.70;75.40;;;;;;4959468;28;20035;-67
2022/02/23 02:46:40;;;;;;;4.13;1.10;;;8.70;75.40;;;;;;4956830;28;20026;-67
2022/02/23 02:49:06;;;;;;;3.53;0.90;;;8.70;75.60;;;;;;4962419;28;20039;-67
2022/02/23 02:51:32;;;;;;;3.25;1.00;;;8.70;75.80;;;;;;4960767;28;20629;-68
2022/02/23 02:53:58;;;;;;;4.85;1.00;;;8.70;75.70;;;;;;4954507;28;20051;-67
2022/02/23 02:56:24;;;;;;;3.30;1.00;;;8.70;76.10;;;;;;4958999;28;20055;-70
2022/02/23 02:58:52;;;;;;;4.28;0.90;;;8.70;76.10;;;;;;4957486;28;20097;-67
2022/02/23 03:01:25;;;;;;;4.53;1.00;;;8.70;76.30;;;;;;4960357;28;20376;-67
2022/02/23 03:03:51;;;;;;;5.35;1.10;;;8.70;76.90;;;;;;4958082;28;20035;-68
2022/02/23 03:06:17;;;;;;;3.63;1.30;;;8.70;76.60;;;;;;4959026;28;20066;-67
2022/02/23 03:08:43;;;;;;;4.50;1.00;;;8.60;76.50;;;;;;4958380;28;20125;-68
2022/02/23 03:11:09;;;;;;;4.43;1.00;;;8.70;76.60;;;;;;4956552;28;20031;-67
2022/02/23 03:13:35;;;;;;;3.35;0.80;;;8.70;76.80;;;;;;4958526;28;20484;-66
2022/02/23 03:16:01;;;;;;;5.18;1.10;;;8.70;76.80;;;;;;4958861;28;20046;-67
2022/02/23 03:18:26;;;;;;;5.22;1.20;;;8.70;77.00;;;;;;4958839;28;20162;-71
2022/02/23 03:20:52;;;;;;;2.70;1.10;;;8.70;77.20;;;;;;4955918;28;20495;-67
2022/02/23 03:23:18;;;;;;;4.20;1.15;;;8.70;77.20;;;;;;4956937;28;20110;-68
2022/02/23 03:25:44;;;;;;;3.20;1.08;;;8.70;77.60;;;;;;4961172;28;20043;-67
2022/02/23 03:28:10;;;;;;;2.75;0.80;;;8.70;77.70;;;;;;4959808;28;21430;-68
2022/02/23 03:30:36;;;;;;;5.30;1.00;;;8.70;77.60;;;;;;4962392;28;20454;-66
2022/02/23 03:33:01;;;;;;;3.10;0.93;;;8.60;77.60;;;;;;4961626;28;20074;-68
2022/02/23 03:35:27;;;;;;;3.13;0.88;;;8.60;77.90;;;;;;4962690;28;20479;-68
2022/02/23 03:37:57;;;;;;;1.95;0.90;;;8.60;77.90;;;;;;4961531;28;20039;-67
2022/02/23 03:40:23;;;;;;;2.90;1.00;;;8.60;78.30;;;;;;4961917;28;20103;-68
2022/02/23 03:42:49;;;;;;;2.75;1.13;;;8.60;78.40;;;;;;4959187;28;20050;-67
2022/02/23 03:45:15;;;;;;;2.13;0.55;;;8.60;78.70;;;;;;4961459;28;20034;-68
2022/02/23 03:47:41;;;;;;;0.40;0.25;;;8.50;79.40;;;;;;4962897;28;20054;-68
2022/02/23 03:50:07;;;;;;;0.30;0.10;;;8.50;77.70;;;;;;4962524;28;20031;-67
2022/02/23 03:52:33;;;;;;;0.10;0.00;;;8.30;75.00;;;;;;4962772;28;20037;-67
2022/02/23 03:54:58;;;;;;;0.43;0.10;;;8.20;73.50;;;;;;4960741;28;20035;-68
2022/02/23 03:57:24;;;;;;;0.28;0.03;;;7.90;73.60;;;;;;4963797;28;20037;-68
2022/02/23 03:59:49;;;;;;;0.93;0.10;;;7.70;73.70;;;;;;4961703;28;20657;-67
2022/02/23 04:02:16;;;;;;;0.55;0.10;;;7.60;73.80;;;;;;4963994;28;20073;-68
2022/02/23 04:04:41;;;;;;;0.70;0.00;;;7.40;74.10;;;;;;4967730;28;20038;-67
2022/02/23 04:07:08;;;;;;;0.20;0.10;;;7.20;74.40;;;;;;4967601;28;20552;-68
2022/02/23 04:09:34;;;;;;;0.10;0.10;;;7.10;74.70;;;;;;4966771;28;20558;-68
2022/02/23 04:11:59;;;;;;;0.17;0.00;;;7.10;75.10;;;;;;4961350;28;20058;-67
2022/02/23 04:14:25;;;;;;;0.70;0.20;;;7.00;75.10;;;;;;4965206;28;20062;-68
2022/02/23 04:16:51;;;;;;;0.20;0.10;;;6.90;75.10;;;;;;4965895;28;20038;-68
2022/02/23 04:19:17;;;;;;;0.13;0.03;;;6.90;75.40;;;;;;4959230;28;21195;-67
2022/02/23 04:21:42;;;;;;;0.57;0.00;;;6.90;76.00;;;;;;4965865;28;20035;-67
2022/02/23 04:24:08;;;;;;;0.47;0.10;;;6.90;76.20;;;;;;4960502;28;20035;-67
2022/02/23 04:26:35;;;;;;;0.40;0.08;;;6.90;76.30;;;;;;4959863;28;20045;-67
2022/02/23 04:29:02;;;;;;;0.82;0.10;;;6.90;76.20;;;;;;4960382;28;20170;-67
2022/02/23 04:31:28;;;;;;;0.32;0.00;;;6.90;76.10;;;;;;4961788;28;20032;-67
2022/02/23 04:33:54;;;;;;;0.43;0.15;;;6.90;76.30;;;;;;4959387;28;20114;-67
2022/02/23 04:36:20;;;;;;;0.40;0.10;;;6.90;76.50;;;;;;4960508;28;20198;-67
2022/02/23 04:38:46;;;;;;;0.35;0.17;;;6.90;76.40;;;;;;4960722;28;20049;-67
2022/02/23 04:41:12;;;;;;;0.20;0.10;;;6.90;76.30;;;;;;4959869;28;20035;-67
2022/02/23 04:43:38;;;;;;;0.40;0.20;;;7.00;76.50;;;;;;4958908;28;20046;-68
2022/02/23 04:46:11;;;;;;;1.00;0.30;;;7.00;76.50;;;;;;4960011;28;20518;-68
2022/02/23 04:48:37;;;;;;;1.20;0.30;;;7.00;76.60;;;;;;4959650;28;20494;-67
2022/02/23 04:51:03;;;;;;;0.90;0.32;;;7.00;76.50;;;;;;4960547;28;20072;-68
2022/02/23 04:53:29;;;;;;;2.25;0.52;;;7.00;76.30;;;;;;4963515;28;20973;-68
2022/02/23 04:55:55;;;;;;;0.32;0.30;;;7.00;76.30;;;;;;4959389;28;20749;-67
2022/02/23 04:58:20;;;;;;;1.10;1.00;;;7.00;76.40;;;;;;4961124;28;20042;-68
2022/02/23 05:00:47;;;;;;;1.40;0.50;;;7.10;76.30;;;;;;4958482;28;20105;-67
2022/02/23 05:03:13;;;;;;;0.63;0.28;;;7.00;76.30;;;;;;4961866;28;20035;-67
2022/02/23 05:05:38;;;;;;;1.10;0.40;;;7.00;76.10;;;;;;4962843;28;20046;-67
2022/02/23 05:08:04;;;;;;;0.70;0.40;;;7.00;76.10;;;;;;4961415;28;20090;-67
2022/02/23 05:10:29;;;;;;;2.90;0.43;;;7.00;76.20;;;;;;4953607;28;20102;-68
2022/02/23 05:12:55;;;;;;;0.75;0.63;;;7.00;76.30;;;;;;4960959;28;20430;-67
2022/02/23 05:15:21;;;;;;;0.40;0.30;;;7.00;76.40;;;;;;4959242;28;20039;-67
2022/02/23 05:17:46;;;;;;;1.23;0.93;;;6.90;76.30;;;;;;4956354;28;20477;-67
2022/02/23 05:20:12;;;;;;;2.53;2.05;;;6.90;76.50;;;;;;4959977;28;20035;-67
2022/02/23 05:22:38;;;;;;;2.70;1.67;;;7.00;76.80;;;;;;4958269;28;20046;-67
2022/02/23 05:25:04;;;;;;;2.13;1.42;;;6.90;76.90;;;;;;4961589;28;20053;-68
2022/02/23 05:27:30;;;;;;;2.58;1.52;;;6.90;76.80;;;;;;4960211;28;20031;-68
2022/02/23 05:29:56;;;;;;;9.00;6.43;;;6.90;76.60;;;;;;4960319;28;20449;-67
2022/02/23 05:32:22;;;;;;;3.40;2.03;;;6.90;76.60;;;;;;4962658;28;20042;-67
2022/02/23 05:34:47;;;;;;;2.45;0.93;;;6.90;76.40;;;;;;4963416;28;20039;-67
2022/02/23 05:37:13;;;;;;;1.88;1.10;;;6.90;76.30;;;;;;4961627;28;20035;-67
2022/02/23 05:39:39;;;;;;;1.65;1.10;;;6.90;76.40;;;;;;4961802;28;21045;-67
2022/02/23 05:42:05;;;;;;;1.15;0.77;;;6.90;76.50;;;;;;4963986;28;20625;-67
2022/02/23 05:44:31;;;;;;;1.35;0.60;;;6.80;76.60;;;;;;4962585;28;20390;-67
2022/02/23 05:46:57;;;;;;;1.13;0.40;;;6.80;76.60;;;;;;4959822;28;20066;-67
2022/02/23 05:49:22;;;;;;;0.95;0.35;;;6.70;76.70;;;;;;4964832;28;20058;-66
2022/02/23 05:51:48;;;;;;;1.35;0.60;;;6.70;76.80;;;;;;4962682;28;20039;-67
2022/02/23 05:54:15;;;;;;;0.85;0.40;;;6.70;76.90;;;;;;4963288;28;20058;-67
2022/02/23 05:56:42;;;;;;;1.25;0.40;;;6.60;76.90;;;;;;4962587;28;20039;-67
2022/02/23 05:59:08;;;;;;;0.75;0.47;;;6.60;77.10;;;;;;4962548;28;20557;-68
2022/02/23 06:01:34;;;;;;;0.68;0.30;;;6.60;77.20;;;;;;4962232;28;20062;-68
2022/02/23 06:04:00;;;;;;;0.95;0.45;;;6.50;77.20;;;;;;4962250;28;20038;-68
2022/02/23 06:06:26;;;;;;;1.75;0.60;;;6.50;77.10;;;;;;4964039;28;20038;-68
2022/02/23 06:08:52;;;;;;;1.00;0.80;;;6.50;77.30;;;;;;4961288;28;20039;-67
2022/02/23 06:11:18;;;;;;;1.92;0.80;;;6.40;77.30;;;;;;4961109;28;20177;-67
2022/02/23 06:13:50;;;;;;;1.52;0.70;;;6.40;77.40;;;;;;4961022;28;20151;-68
2022/02/23 06:16:21;;;;;;;2.10;0.82;;;6.30;77.50;;;;;;4964904;28;20039;-68
2022/02/23 06:18:47;;;;;;;1.65;1.05;;;6.30;77.60;;;;;;4961408;28;20038;-67
2022/02/23 06:21:12;;;;;;;2.45;1.23;;;6.20;77.60;;;;;;4961972;28;20431;-67
2022/02/23 06:23:38;;;;;;;3.55;1.40;;;6.20;77.60;;;;;;4961316;28;20121;-67
2022/02/23 06:26:05;;;;;;;1.52;1.17;;;6.20;77.80;;;;;;4963290;28;20069;-67
2022/02/23 06:28:31;;;;;;;2.17;0.90;;;6.20;77.90;;;;;;4960858;28;20039;-67
2022/02/23 06:30:57;;;;;;;2.80;0.82;;;6.20;78.00;;;;;;4966071;28;20061;-67
2022/02/23 06:33:25;;;;;;;2.15;1.10;;;6.10;78.00;;;;;;4961502;28;20525;-67
2022/02/23 06:35:51;;;;;;;2.50;1.30;;;6.20;78.30;;;;;;4963904;28;20039;-67
2022/02/23 06:38:17;;;;;;;3.92;1.23;;;6.20;78.20;;;;;;4961087;28;20510;-66
2022/02/23 06:40:43;;;;;;;2.80;1.40;;;6.20;78.10;;;;;;4960495;28;21621;-67
2022/02/23 06:43:12;;;;;;;2.75;1.40;;;6.20;78.10;;;;;;4961258;28;20854;-66
2022/02/23 06:45:38;;;;;;;2.58;1.52;;;6.20;78.00;;;;;;4962809;28;20062;-64
2022/02/23 06:48:04;;;;;;;2.38;1.38;;;6.20;78.00;;;;;;4961875;28;20114;-66
2022/02/23 06:50:29;;;;;;;3.13;1.90;;;6.30;77.90;;;;;;4960701;28;20035;-68
2022/02/23 06:52:56;;;;;;;1.85;1.60;;;6.30;77.80;;;;;;4962129;28;20119;-67
2022/02/23 06:55:21;;;;;;;2.92;0.90;;;6.30;77.80;;;;;;4962598;28;20043;-67
2022/02/23 06:57:47;;;;;;;1.55;1.13;;;6.20;77.70;;;;;;4960753;28;20035;-67
2022/02/23 07:00:13;;;;;;;3.20;1.52;;;6.30;77.70;;;;;;4962976;28;20042;-67
2022/02/23 07:02:39;;;;;;;3.38;1.98;;;6.20;77.60;;;;;;4962551;28;20043;-67
2022/02/23 07:05:06;;;;;;;4.47;2.00;;;6.20;77.60;;;;;;4958838;28;20042;-66
2022/02/23 07:07:32;;;;;;;5.72;3.25;;;6.30;77.70;;;;;;4960737;28;20038;-67
2022/02/23 07:09:58;;;;;;;3.38;1.55;;;6.30;77.80;;;;;;4960721;28;20027;-66
2022/02/23 07:12:24;;;;;;;3.42;1.50;;;6.30;77.80;;;;;;4960262;28;20042;-68
2022/02/23 07:14:50;;;;;;;2.42;1.63;;;6.30;77.80;;;;;;4964229;28;20035;-67
2022/02/23 07:17:16;;;;;;;3.63;1.30;;;6.30;77.90;;;;;;4964096;28;20031;-67
2022/02/23 07:19:42;;;;;;;3.50;1.45;;;6.30;78.90;;;;;;4963367;28;20042;-67
2022/02/23 07:22:07;;;;;;;3.08;0.90;;;6.30;78.10;;;;;;4960666;28;20043;-67
2022/02/23 07:24:35;;;;;;;2.17;1.00;;;6.30;78.30;;;;;;4959996;28;20039;-66
2022/02/23 07:27:01;;;;;;;2.60;1.00;;;6.30;78.30;;;;;;4960860;28;20089;-67
2022/02/23 07:29:27;;;;;;;1.85;1.00;;;6.30;78.30;;;;;;4963563;28;20194;-67
2022/02/23 07:31:52;;;;;;;2.83;1.20;;;6.30;78.30;;;;;;4960239;28;20090;-67
2022/02/23 07:34:18;;;;;;;4.13;1.10;;;6.30;78.30;;;;;;4963289;28;20035;-67
2022/02/23 07:36:44;;;;;;;2.35;0.90;;;6.30;78.50;;;;;;4961366;28;20035;-65
2022/02/23 07:39:11;;;;;;;2.38;1.08;;;6.40;78.50;;;;;;4960808;28;20513;-67
2022/02/23 07:41:36;;;;;;;2.75;1.10;;;6.40;78.50;;;;;;4959280;28;20516;-66
2022/02/23 07:44:02;;;;;;;2.15;1.17;;;6.40;78.50;;;;;;4961513;28;20035;-67
2022/02/23 07:46:28;;;;;;;2.47;1.05;;;6.40;78.60;;;;;;4963243;28;20058;-67
2022/02/23 07:48:58;;;;;;;1.50;1.20;;;6.40;78.70;;;;;;4965099;28;20035;-68
2022/02/23 07:51:24;;;;;;;2.53;1.10;;;6.40;78.70;;;;;;4965992;28;20039;-68
2022/02/23 07:53:52;;;;;;;2.08;1.08;;;6.50;78.80;;;;;;4965897;28;20042;-66
2022/02/23 07:56:21;;;;;;;4.88;1.75;;;6.50;78.80;;;;;;4965431;28;20506;-67
2022/02/23 07:58:47;;;;;;;4.80;2.13;;;6.50;78.70;;;;;;4964913;28;20490;-67
2022/02/23 08:01:37;;;;;;;3.03;1.73;;;6.50;78.60;;;;;;4966649;28;20126;-67
2022/02/23 08:04:04;;;;;;;3.38;1.45;;;6.50;79.30;;;;;;4965726;28;20452;-67
2022/02/23 08:06:31;;;;;;;3.45;2.00;;;6.50;78.80;;;;;;4964796;28;20379;-67
2022/02/23 08:08:57;;;;;;;3.95;1.83;;;6.60;79.10;;;;;;4965601;28;20042;-67
2022/02/23 08:11:28;;;;;;;2.28;1.35;;;6.60;79.00;;;;;;4964928;28;20097;-67
2022/02/23 08:14:02;;;;;;;2.30;1.00;;;6.60;79.20;;;;;;4965003;28;20370;-67
2022/02/23 08:19:37;;;;;;;2.20;1.13;;;6.60;79.10;;;;;;4952676;28;20031;-67
2022/02/23 08:22:13;;;;;;;2.72;0.93;;;6.70;79.10;;;;;;4963858;28;20410;-67
2022/02/23 08:24:44;;;;;;;2.67;1.00;;;6.70;79.80;;;;;;4967133;28;20042;-67
2022/02/23 08:27:11;;;;;;;2.33;1.15;;;6.70;79.50;;;;;;4968770;28;20046;-65
2022/02/23 08:29:39;;;;;;;4.18;1.15;;;6.80;79.60;;;;;;4968392;28;20038;-66
2022/02/23 08:32:08;;;;;;;2.20;1.20;;;6.80;79.60;;;;;;4967100;28;20039;-67
2022/02/23 08:34:34;;;;;;;3.13;1.30;;;6.80;79.60;;;;;;4968647;28;20454;-67
2022/02/23 08:37:00;;;;;;;4.80;1.65;;;6.90;79.70;;;;;;4968676;28;20035;-66
2022/02/23 08:39:25;;;;;;;4.75;1.10;;;6.90;79.60;;;;;;4968951;28;20113;-67
2022/02/23 08:41:51;;;;;;;4.38;1.35;;;7.00;79.60;;;;;;4968437;28;20502;-67
2022/02/23 08:44:17;;;;;;;5.60;1.45;;;7.00;79.50;;;;;;4969260;28;20050;-66
2022/02/23 08:46:44;;;;;;;4.63;1.70;;;7.10;79.60;;;;;;4967416;28;20046;-66
2022/02/23 08:49:11;;;;;;;5.28;2.00;;;7.10;79.60;;;;;;4968633;28;20371;-67
2022/02/23 08:51:41;;;;;;;3.92;1.38;;;7.20;79.70;;;;;;4968001;28;20191;-67
2022/02/23 08:54:07;;;;;;;4.35;1.10;;;7.20;79.50;;;;;;4967494;28;20030;-67
2022/02/23 08:56:32;;;;;;;7.22;1.13;;;7.20;79.30;;;;;;4968137;28;20038;-66
2022/02/23 08:58:58;;;;;;;3.40;1.40;;;7.30;79.20;;;;;;4967947;28;20049;-67
2022/02/23 09:01:25;;;;;;;3.00;1.02;;;7.40;79.30;;;;;;4966608;28;20039;-66
2022/02/23 09:03:52;;;;;;;4.00;1.10;;;7.40;79.10;;;;;;4964096;28;20043;-67
2022/02/23 09:06:18;;;;;;;5.10;1.17;;;7.50;78.90;;;;;;4968219;28;20039;-67
2022/02/23 09:08:44;;;;;;;2.70;1.42;;;7.50;78.60;;;;;;4968885;28;20434;-67
2022/02/23 09:11:12;;;;;;;2.00;1.20;;;7.50;78.40;;;;;;4965481;28;20118;-66
2022/02/23 09:13:37;;;;;;;3.97;1.10;;;7.60;78.60;;;;;;4968137;28;20058;-67
2022/02/23 09:16:04;;;;;;;4.22;0.98;;;7.70;78.60;;;;;;4968857;28;20042;-67
2022/02/23 09:18:29;;;;;;;7.30;0.98;;;7.70;78.50;;;;;;4967914;28;20032;-67
2022/02/23 09:20:55;;;;;;;3.17;1.00;;;7.70;78.20;;;;;;4968559;28;20027;-67
2022/02/23 09:23:21;;;;;;;2.08;0.93;;;7.70;78.20;;;;;;4968227;28;20043;-67
2022/02/23 09:25:47;;;;;;;4.03;1.13;;;7.70;78.20;;;;;;4966119;28;20019;-67
2022/02/23 09:28:12;;;;;;;6.43;1.13;;;7.80;78.30;;;;;;4965034;28;20081;-68
2022/02/23 09:30:38;;;;;;;5.88;1.10;;;7.80;78.40;;;;;;4965539;28;20031;-67
2022/02/23 09:33:03;;;;;;;4.88;0.80;;;7.90;78.50;;;;;;4964052;28;20533;-67
2022/02/23 09:35:29;;;;;;;4.35;1.13;;;7.90;78.40;;;;;;4965193;28;20052;-67
2022/02/23 09:37:57;;;;;;;3.17;1.00;;;8.00;78.30;;;;;;4960896;28;20510;-67
2022/02/23 09:40:23;;;;;;;5.22;1.17;;;8.00;78.10;;;;;;4963728;28;20130;-66
2022/02/23 09:42:50;;;;;;;4.93;1.17;;;8.10;78.70;;;;;;4962040;28;20066;-67
2022/02/23 09:45:16;;;;;;;6.75;1.23;;;8.20;77.80;;;;;;4963536;28;20035;-67
2022/02/23 09:47:43;;;;;;;5.82;1.30;;;8.20;77.70;;;;;;4963221;28;20030;-67
2022/02/23 09:50:11;;;;;;;6.65;1.50;;;8.30;77.40;;;;;;4964862;28;20118;-67
2022/02/23 09:52:37;;;;;;;5.25;1.15;;;8.30;76.90;;;;;;4962539;28;20459;-66
2022/02/23 09:55:05;;;;;;;7.50;1.58;;;8.30;76.50;;;;;;4964178;28;20229;-67
2022/02/23 09:57:31;;;;;;;4.00;1.05;;;8.30;76.50;;;;;;4962893;28;20034;-67
2022/02/23 09:59:57;;;;;;;4.22;1.10;;;8.30;76.80;;;;;;4962293;28;20046;-67
2022/02/23 10:02:24;;;;;;;8.23;1.48;;;8.40;76.80;;;;;;4964225;28;20039;-67
2022/02/23 10:04:50;;;;;;;2.67;1.17;;;8.50;76.70;;;;;;4956936;28;20057;-67
2022/02/23 10:07:27;;;;;;;3.33;0.93;;;8.60;76.60;;;;;;4963264;28;20038;-65
2022/02/23 10:09:57;;;;;;;6.85;1.30;;;8.70;76.40;;;;;;4964524;28;20414;-67
2022/02/23 10:12:26;;;;;;;6.25;1.42;;;8.70;76.00;;;;;;4961359;28;20133;-67
2022/02/23 10:15:19;;;;;;;6.38;1.27;;;8.80;75.80;;;;;;4960492;28;20398;-67
2022/02/23 10:17:47;;;;;;;6.30;1.20;;;8.90;75.30;;;;;;4963748;28;20085;-67
2022/02/23 10:20:22;;;;;;;6.43;1.38;;;9.00;75.60;;;;;;4963571;28;20039;-67
2022/02/23 10:22:49;;;;;;;5.88;1.63;;;9.10;75.30;;;;;;4961638;28;20042;-67
2022/02/23 10:25:21;;;;;;;7.50;1.50;;;9.10;75.20;;;;;;4962960;28;20027;-68
2022/02/23 10:27:47;;;;;;;3.08;0.93;;;9.20;74.40;;;;;;4960945;28;20031;-67
2022/02/23 10:30:24;;;;;;;7.43;1.00;;;9.30;73.80;;;;;;4965884;28;20048;-67
2022/02/23 10:32:53;;;;;;;4.57;1.30;;;9.30;73.20;;;;;;4961666;28;20085;-67
2022/02/23 10:35:28;;;;;;;6.82;1.13;;;9.40;72.80;;;;;;4962773;28;20580;-67
2022/02/23 10:37:55;;;;;;;6.00;1.20;;;9.50;72.20;;;;;;4961854;28;20074;-68
2022/02/23 10:40:20;;;;;;;8.18;1.40;;;9.50;72.40;;;;;;4958960;28;20343;-66
2022/02/23 10:42:46;;;;;;;7.18;1.70;;;9.60;72.00;;;;;;4961572;28;20097;-67
2022/02/23 10:45:18;;;;;;;6.22;1.48;;;9.60;71.10;;;;;;4963744;28;20109;-67
2022/02/23 10:47:47;;;;;;;5.50;0.80;;;9.70;70.30;;;;;;4960216;28;20118;-67
2022/02/23 10:50:16;;;;;;;5.88;0.95;;;9.70;70.30;;;;;;4962289;28;20058;-67
2022/02/23 10:52:53;;;;;;;6.03;1.33;;;9.80;70.20;;;;;;4961932;28;20043;-66
2022/02/23 10:55:21;;;;;;;8.43;1.38;;;9.80;69.90;;;;;;4960008;28;20050;-67
2022/02/23 10:57:49;;;;;;;4.85;1.02;;;9.80;69.90;;;;;;4961801;28;20912;-67
2022/02/23 11:00:16;;;;;;;5.03;1.10;;;9.80;69.80;;;;;;4964043;28;20041;-67
2022/02/23 11:02:41;;;;;;;6.47;1.05;;;9.80;70.00;;;;;;4960263;28;20038;-67
2022/02/23 11:05:07;;;;;;;4.03;0.82;;;9.90;70.20;;;;;;4964542;28;20042;-67
2022/02/23 11:07:33;;;;;;;5.25;0.98;;;9.90;70.20;;;;;;4963176;28;20158;-67
2022/02/23 11:09:59;;;;;;;4.57;1.00;;;10.00;70.00;;;;;;4959887;28;20127;-67
2022/02/23 11:12:27;;;;;;;9.25;1.58;;;10.10;69.60;;;;;;4961250;28;20515;-67
2022/02/23 11:14:53;;;;;;;6.40;1.23;;;10.10;69.30;;;;;;4961686;28;20438;-67
2022/02/23 11:17:20;;;;;;;5.20;1.00;;;10.20;69.50;;;;;;4960104;28;20062;-67
2022/02/23 11:19:46;;;;;;;8.00;1.20;;;10.30;69.20;;;;;;4962673;28;20035;-67
2022/02/23 11:22:12;;;;;;;4.00;1.00;;;10.30;68.30;;;;;;4963502;28;20101;-67
2022/02/23 11:24:39;;;;;;;7.00;0.98;;;10.40;68.30;;;;;;4961522;28;20425;-67
2022/02/23 11:27:08;;;;;;;3.30;0.85;;;10.40;68.40;;;;;;4960821;28;20034;-68
2022/02/23 11:29:45;;;;;;;4.60;1.20;;;10.50;68.10;;;;;;4963188;28;20027;-68
2022/02/23 11:32:11;;;;;;;6.63;1.10;;;10.60;68.30;;;;;;4961126;28;20044;-67
2022/02/23 11:34:38;;;;;;;3.83;0.95;;;10.60;68.00;;;;;;4960173;28;20031;-67
2022/02/23 11:37:11;;;;;;;2.95;0.70;;;10.70;67.80;;;;;;4961253;28;22135;-68
2022/02/23 11:39:38;;;;;;;7.57;1.33;;;10.70;67.50;;;;;;4960783;28;20115;-67
2022/02/23 11:42:10;;;;;;;4.97;1.30;;;10.80;68.00;;;;;;4959394;28;21153;-67
2022/02/23 11:44:40;;;;;;;2.88;0.82;;;10.80;68.00;;;;;;4961164;28;20031;-66
2022/02/23 11:49:55;;;;;;;1.90;0.73;;;11.00;67.00;;;;;;4960086;28;20074;-67
2022/02/23 11:52:31;;;;;;;2.05;0.55;;;11.00;67.10;;;;;;4965074;28;20042;-67
2022/02/23 11:55:15;;;;;;;3.88;1.45;;;11.00;66.90;;;;;;4964186;28;20031;-67
2022/02/23 12:01:01;;;;;;;4.80;0.75;;;11.10;66.60;;;;;;4963482;28;20053;-67
2022/02/23 12:03:28;;;;;;;2.17;0.60;;;11.20;65.80;;;;;;4966182;28;20034;-67
2022/02/23 12:05:59;;;;;;;1.08;0.50;;;11.20;66.40;;;;;;4965886;28;20059;-68
2022/02/23 12:08:42;;;;;;;4.75;0.45;;;11.20;65.00;;;;;;4963533;28;20081;-67
2022/02/23 12:11:27;;;;;;;0.95;0.40;;;11.20;64.60;;;;;;4959794;28;20470;-67
2022/02/23 12:13:58;;;;;;;2.95;0.40;;;11.20;65.10;;;;;;4963316;28;20135;-67
2022/02/23 12:16:38;;;;;;;2.63;0.80;;;11.30;66.00;;;;;;4965324;28;20031;-67
2022/02/23 12:19:06;;;;;;;2.95;0.60;;;11.30;65.50;;;;;;4963398;28;20035;-68
2022/02/23 12:21:37;;;;;;;2.72;0.70;;;11.30;65.70;;;;;;4966528;28;20022;-67
2022/02/23 12:24:04;;;;;;;4.25;0.65;;;11.30;65.40;;;;;;4966411;28;20081;-67
2022/02/23 12:26:36;;;;;;;1.92;0.80;;;11.40;65.70;;;;;;4963862;28;20042;-68
2022/02/23 12:29:03;;;;;;;1.33;0.68;;;11.40;65.30;;;;;;4964311;28;20082;-67
2022/02/23 12:31:32;;;;;;;3.25;1.00;;;11.50;65.60;;;;;;4965169;28;20031;-67
2022/02/23 12:34:10;;;;;;;3.50;1.00;;;11.50;65.70;;;;;;4963054;28;20038;-68
2022/02/23 12:36:38;;;;;;;3.88;1.30;;;11.50;65.00;;;;;;4965462;28;20031;-66
2022/02/23 12:39:12;;;;;;;2.55;1.00;;;11.50;65.50;;;;;;4964968;28;20097;-67
2022/02/23 12:41:39;;;;;;;1.52;0.82;;;11.60;65.50;;;;;;4963450;28;20490;-67
2022/02/23 12:44:11;;;;;;;3.83;1.00;;;11.60;65.50;;;;;;4963512;28;21805;-68
2022/02/23 12:46:40;;;;;;;2.30;1.13;;;11.70;65.30;;;;;;4962069;28;20733;-66
2022/02/23 12:49:07;;;;;;;2.08;0.80;;;11.70;65.30;;;;;;4966162;28;20117;-67
2022/02/23 12:51:33;;;;;;;2.92;0.85;;;11.70;65.40;;;;;;4965198;28;20030;-68
2022/02/23 12:54:03;;;;;;;1.13;0.80;;;11.70;65.30;;;;;;4963070;28;20058;-67
2022/02/23 12:56:33;;;;;;;2.70;0.90;;;11.70;65.20;;;;;;4963042;28;20077;-67
2022/02/23 12:59:05;;;;;;;1.77;0.80;;;11.70;65.00;;;;;;4966016;28;20129;-68
2022/02/23 13:01:43;;;;;;;1.35;0.70;;;11.70;64.80;;;;;;4964167;28;20043;-68
2022/02/23 13:04:36;;;;;;;1.13;0.77;;;11.70;64.80;;;;;;4963754;28;20063;-67